createdAt,value
2023-02-23T00:02:35.205Z,46.18
2023-02-23T00:07:37.338Z,46.03
2023-02-23T00:12:40.532Z,45.96
2023-02-23T00:17:42.391Z,46.05
2023-02-23T00:22:44.360Z,46.16
2023-02-23T00:27:46.438Z,46.01
2023-02-23T00:32:50.250Z,46.14
2023-02-23T00:37:52.242Z,45.86
2023-02-23T00:42:54.028Z,45.79
2023-02-23T00:47:56.046Z,46.19
2023-02-23T00:53:00.011Z,45.99
2023-02-23T00:58:04.305Z,45.95
2023-02-23T01:03:06.341Z,46.00
2023-02-23T01:08:10.357Z,46.00
2023-02-23T01:13:12.779Z,45.78
2023-02-23T01:18:19.316Z,45.99
2023-02-23T01:23:23.266Z,46.07
2023-02-23T01:28:25.357Z,45.75
2023-02-23T01:33:27.237Z,45.75
2023-02-23T01:38:29.036Z,45.78
2023-02-23T01:43:30.758Z,45.83
2023-02-23T01:48:39.721Z,45.75
2023-02-23T01:53:45.092Z,45.72
2023-02-23T01:58:52.330Z,45.79
2023-02-23T02:03:58.189Z,45.56
2023-02-23T02:09:07.006Z,45.83
2023-02-23T02:14:34.772Z,45.60
2023-02-23T02:19:37.348Z,45.71
2023-02-23T02:24:57.778Z,45.96
2023-02-23T02:30:10.622Z,45.96
2023-02-23T02:35:53.603Z,45.79
2023-02-23T02:41:18.509Z,45.73
2023-02-23T02:46:52.501Z,45.58
2023-02-23T02:52:01.888Z,45.63
2023-02-23T02:57:05.132Z,45.69
2023-02-23T03:02:26.693Z,45.79
2023-02-23T03:08:32.969Z,45.79
2023-02-23T03:14:18.019Z,45.50
2023-02-23T03:19:45.024Z,45.50
2023-02-23T03:25:11.126Z,45.75
2023-02-23T03:30:39.825Z,45.77
2023-02-23T03:36:23.717Z,45.45
2023-02-23T03:41:47.717Z,45.64
2023-02-23T03:47:11.138Z,45.46
2023-02-23T03:52:38.775Z,45.87
2023-02-23T03:58:02.209Z,45.57
2023-02-23T04:03:27.215Z,45.95
2023-02-23T04:08:56.360Z,45.66
2023-02-23T04:14:02.128Z,45.61
2023-02-23T04:19:04.156Z,45.80
2023-02-23T04:24:06.057Z,45.80
2023-02-23T04:29:07.862Z,45.83
2023-02-23T04:34:09.691Z,45.59
2023-02-23T04:39:11.477Z,45.68
2023-02-23T04:44:13.596Z,45.93
2023-02-23T04:49:15.774Z,45.63
2023-02-23T04:54:20.843Z,45.74
2023-02-23T04:59:22.725Z,45.61
2023-02-23T05:04:25.192Z,46.06
2023-02-23T05:09:27.260Z,45.64
2023-02-23T05:14:28.986Z,46.03
2023-02-23T05:19:30.902Z,45.65
2023-02-23T05:24:32.756Z,45.89
2023-02-23T05:29:34.703Z,45.98
2023-02-23T05:34:37.084Z,45.97
2023-02-23T05:39:38.891Z,46.02
2023-02-23T05:44:40.690Z,45.75
2023-02-23T05:49:43.059Z,45.60
2023-02-23T05:54:45.517Z,45.59
2023-02-23T05:59:47.616Z,45.53
2023-02-23T06:04:49.714Z,46.13
2023-02-23T06:09:51.647Z,45.95
2023-02-23T06:14:53.687Z,45.83
2023-02-23T06:19:55.653Z,46.09
2023-02-23T06:24:57.525Z,45.83
2023-02-23T06:29:59.516Z,45.82
2023-02-23T06:35:02.068Z,45.75
2023-02-23T06:40:05.372Z,45.78
2023-02-23T06:45:07.648Z,45.87
2023-02-23T06:50:10.362Z,45.97
2023-02-23T06:55:13.429Z,46.15
2023-02-23T07:00:18.249Z,45.72
2023-02-23T07:05:20.597Z,46.07
2023-02-23T07:10:22.466Z,46.21
2023-02-23T07:15:24.468Z,46.25
2023-02-23T07:20:26.734Z,46.32
2023-02-23T07:25:29.203Z,46.24
2023-02-23T07:30:31.227Z,46.08
2023-02-23T07:35:33.370Z,46.06
2023-02-23T07:40:35.402Z,46.26
2023-02-23T07:45:37.286Z,46.01
2023-02-23T07:50:40.953Z,46.40
2023-02-23T07:55:42.933Z,46.27
2023-02-23T08:00:44.863Z,46.48
2023-02-23T08:05:46.798Z,46.40
2023-02-23T08:10:50.899Z,46.33
2023-02-23T08:15:52.752Z,46.38
2023-02-23T08:21:02.249Z,46.09
2023-02-23T08:26:04.264Z,46.44
2023-02-23T08:31:10.025Z,46.59
2023-02-23T08:36:11.833Z,46.57
2023-02-23T08:41:14.593Z,46.73
2023-02-23T08:46:18.993Z,46.64
2023-02-23T08:51:21.325Z,46.53
2023-02-23T08:56:25.634Z,47.04
2023-02-23T09:01:27.763Z,46.99
2023-02-23T09:06:30.182Z,46.35
2023-02-23T09:11:32.174Z,46.35
2023-02-23T09:16:34.371Z,46.07
2023-02-23T09:21:36.620Z,46.05
2023-02-23T09:26:40.680Z,46.13
2023-02-23T09:31:44.018Z,46.67
2023-02-23T09:36:46.310Z,47.06
2023-02-23T09:42:01.421Z,47.63
2023-02-23T09:47:24.902Z,47.56
2023-02-23T09:52:36.722Z,47.47
2023-02-23T09:57:41.531Z,47.43
2023-02-23T10:03:17.189Z,47.54
2023-02-23T10:08:42.337Z,47.35
2023-02-23T10:13:55.760Z,47.05
2023-02-23T10:19:20.151Z,46.66
2023-02-23T10:24:38.546Z,46.44
2023-02-23T10:29:53.184Z,46.54
2023-02-23T10:34:57.117Z,46.23
2023-02-23T10:39:59.207Z,46.10
2023-02-23T10:45:01.652Z,46.33
2023-02-23T10:50:04.208Z,46.02
2023-02-23T10:55:09.272Z,46.24
2023-02-23T11:00:17.225Z,46.28
2023-02-23T11:05:57.557Z,46.14
2023-02-23T11:11:19.320Z,46.16
2023-02-23T11:16:29.143Z,46.45
2023-02-23T11:21:38.703Z,46.49
2023-02-23T11:26:43.500Z,46.95
2023-02-23T11:31:57.780Z,46.97
2023-02-23T11:37:06.806Z,46.82
2023-02-23T11:42:19.459Z,47.04
2023-02-23T11:47:23.274Z,46.93
2023-02-23T11:52:26.339Z,46.92
2023-02-23T11:57:34.280Z,47.06
2023-02-23T12:02:51.372Z,46.86
2023-02-23T12:08:15.142Z,46.94
2023-02-23T12:13:29.254Z,47.66
2023-02-23T12:18:41.931Z,47.54
2023-02-23T12:23:50.435Z,47.48
2023-02-23T12:29:02.821Z,47.18
2023-02-23T12:34:13.289Z,47.50
2023-02-23T12:39:24.735Z,47.50
2023-02-23T12:44:35.873Z,47.49
2023-02-23T12:49:55.375Z,47.21
2023-02-23T12:54:57.847Z,47.34
2023-02-23T13:00:02.312Z,47.35
2023-02-23T13:05:18.215Z,47.33
2023-02-23T13:10:29.977Z,47.25
2023-02-23T13:15:48.986Z,47.17
2023-02-23T13:21:29.520Z,47.03
2023-02-23T13:26:54.561Z,47.71
2023-02-23T13:31:56.788Z,47.61
2023-02-23T13:37:01.473Z,47.54
2023-02-23T13:42:10.043Z,47.30
2023-02-23T13:47:20.599Z,47.37
2023-02-23T13:52:41.057Z,47.75
2023-02-23T13:57:43.978Z,47.73
2023-02-23T14:02:46.564Z,47.24
2023-02-23T14:07:56.919Z,47.04
2023-02-23T14:13:26.378Z,47.39
2023-02-23T14:18:31.469Z,47.25
2023-02-23T14:23:35.210Z,47.38
2023-02-23T14:28:39.677Z,47.15
2023-02-23T14:33:48.672Z,47.38
2023-02-23T14:38:56.362Z,47.30
2023-02-23T14:44:28.316Z,47.15
2023-02-23T14:49:39.678Z,47.13
2023-02-23T14:54:41.640Z,47.25
2023-02-23T14:59:44.343Z,47.20
2023-02-23T15:04:46.867Z,47.10
2023-02-23T15:09:48.824Z,47.09
2023-02-23T15:14:50.874Z,47.11
2023-02-23T15:20:14.323Z,46.73
2023-02-23T15:25:24.369Z,46.57
2023-02-23T15:30:32.868Z,46.87
2023-02-23T15:36:04.039Z,46.69
2023-02-23T15:41:09.618Z,46.87
2023-02-23T15:46:24.375Z,46.49
2023-02-23T15:51:56.771Z,46.60
2023-02-23T15:57:04.690Z,46.68
2023-02-23T16:02:23.552Z,46.38
2023-02-23T16:07:27.961Z,46.43
2023-02-23T16:12:33.267Z,46.50
2023-02-23T16:17:47.506Z,46.66
2023-02-23T16:22:53.793Z,46.96
2023-02-23T16:28:10.001Z,46.69
2023-02-23T16:33:20.927Z,46.90
2023-02-23T16:38:36.094Z,46.49
2023-02-23T16:43:38.011Z,46.77
2023-02-23T16:48:40.868Z,46.57
2023-02-23T16:53:46.125Z,46.50
2023-02-23T16:58:58.361Z,46.37
2023-02-23T17:04:00.327Z,46.12
2023-02-23T17:09:02.185Z,46.08
2023-02-23T17:14:04.325Z,46.26
2023-02-23T17:19:07.572Z,46.03
2023-02-23T17:24:09.735Z,46.15
2023-02-23T17:29:12.033Z,45.97
2023-02-23T17:34:14.229Z,46.65
2023-02-23T17:39:17.079Z,46.29
2023-02-23T17:44:18.926Z,46.31
2023-02-23T17:49:20.852Z,46.12
2023-02-23T17:54:22.726Z,45.99
2023-02-23T17:59:24.713Z,46.08
2023-02-23T18:04:28.174Z,45.89
2023-02-23T18:09:30.005Z,46.18
2023-02-23T18:14:32.225Z,46.10
2023-02-23T18:19:34.568Z,46.02
2023-02-23T18:24:37.964Z,45.74
2023-02-23T18:29:40.070Z,45.97
2023-02-23T18:34:42.201Z,45.69
2023-02-23T18:39:44.382Z,45.60
2023-02-23T18:44:46.416Z,45.62
2023-02-23T18:49:48.593Z,45.66
2023-02-23T18:54:50.712Z,45.88
2023-02-23T18:59:52.747Z,45.60
2023-02-23T19:04:54.938Z,45.53
2023-02-23T19:10:02.425Z,45.42
2023-02-23T19:15:07.459Z,45.53
2023-02-23T19:20:16.098Z,45.34
2023-02-23T19:25:18.261Z,45.24
2023-02-23T19:30:20.418Z,45.46
2023-02-23T19:35:23.039Z,45.34
2023-02-23T19:40:29.519Z,45.12
2023-02-23T19:45:31.903Z,45.09
2023-02-23T19:50:36.126Z,45.42
2023-02-23T19:55:38.492Z,45.36
2023-02-23T20:00:40.802Z,45.47
2023-02-23T20:05:43.016Z,45.14
2023-02-23T20:10:45.647Z,45.28
2023-02-23T20:15:47.863Z,45.10
2023-02-23T20:20:49.791Z,45.24
2023-02-23T20:25:51.846Z,45.27
2023-02-23T20:30:54.095Z,45.29
2023-02-23T20:35:56.462Z,45.16
2023-02-23T20:41:03.669Z,44.98
2023-02-23T20:46:06.811Z,45.02
2023-02-23T20:51:13.145Z,45.05
2023-02-23T20:56:17.644Z,45.31
2023-02-23T21:01:23.834Z,45.07
2023-02-23T21:06:26.557Z,45.16
2023-02-23T21:11:29.858Z,44.91
2023-02-23T21:16:32.520Z,44.74
2023-02-23T21:21:44.981Z,44.77
2023-02-23T21:26:46.994Z,44.81
2023-02-23T21:31:49.052Z,44.85
2023-02-23T21:36:51.692Z,44.80
2023-02-23T21:41:54.083Z,44.91
2023-02-23T21:46:55.968Z,44.72
2023-02-23T21:51:58.395Z,44.74
2023-02-23T21:57:00.468Z,44.52
2023-02-23T22:02:02.359Z,44.62
2023-02-23T22:07:04.460Z,45.78
2023-02-23T22:12:07.899Z,46.07
2023-02-23T22:17:11.131Z,46.09
2023-02-23T22:22:13.538Z,46.37
2023-02-23T22:27:16.789Z,45.96
2023-02-23T22:32:19.081Z,46.06
2023-02-23T22:37:31.709Z,45.85
2023-02-23T22:42:35.548Z,45.71
2023-02-23T22:47:37.719Z,45.70
2023-02-23T22:52:39.922Z,45.46
2023-02-23T22:57:41.779Z,45.41
2023-02-23T23:02:43.607Z,45.36
2023-02-23T23:07:48.928Z,45.12
2023-02-23T23:12:50.965Z,44.98
2023-02-23T23:17:53.209Z,45.32
2023-02-23T23:22:57.555Z,45.29
2023-02-23T23:27:59.353Z,44.94
2023-02-23T23:33:02.208Z,44.83
2023-02-23T23:38:06.489Z,45.20
2023-02-23T23:43:08.378Z,44.92
2023-02-23T23:48:10.185Z,45.11
2023-02-23T23:53:11.986Z,45.06
2023-02-23T23:58:18.581Z,45.16
